Time;durP1;ratioP1;P1;durP2;ratioP2;P2;SDS_P1;SDS_P2;PMS_P1;PMS_P2;Temp;Humidity;BMP_temperature;BMP_pressure;BME280_temperature;BME280_humidity;BME280_pressure;Samples;Min_cycle;Max_cycle;Signal;HPM_P1;HPM_P2
2023/09/07 00:00:20;;;;;;;7.83;6.93;;;;;24.50;100923.00;;;;2092273;28;20218;-66
2023/09/07 00:01:20;;;;;;;8.03;7.20;;;;;24.50;100923.00;;;;2092692;28;20208;-66
2023/09/07 00:02:20;;;;;;;7.60;6.50;;;;;24.50;100928.00;;;;2088151;28;20213;-66
2023/09/07 00:03:22;;;;;;;7.27;6.57;;;;;24.50;100929.00;;;;2083829;28;20561;-66
2023/09/07 00:04:23;;;;;;;8.73;6.13;;;;;24.50;100922.00;;;;2091471;28;20220;-66
2023/09/07 00:05:23;;;;;;;7.53;6.83;;;;;24.40;100927.00;;;;2078158;28;20212;-66
2023/09/07 00:06:24;;;;;;;7.33;6.67;;;;;24.40;100921.00;;;;2085840;28;20277;-66
2023/09/07 00:07:24;;;;;;;10.67;6.30;;;;;24.40;100924.00;;;;2091262;28;20587;-66
2023/09/07 00:08:25;;;;;;;6.20;5.60;;;;;24.40;100911.00;;;;2079857;28;20202;-66
2023/09/07 00:09:26;;;;;;;7.27;6.57;;;;;24.40;100920.00;;;;2078417;28;20216;-66
2023/09/07 00:10:27;;;;;;;6.93;6.22;;;;;24.40;100925.00;;;;2079766;28;20205;-66
2023/09/07 00:11:27;;;;;;;8.33;6.30;;;;;24.40;100926.00;;;;2096059;28;20215;-66
2023/09/07 00:12:27;;;;;;;7.77;6.30;;;;;24.40;100917.00;;;;2093547;28;20239;-66
2023/09/07 00:13:27;;;;;;;9.13;7.23;;;;;24.40;100918.00;;;;2083943;28;20232;-66
2023/09/07 00:14:28;;;;;;;7.13;6.43;;;;;24.40;100918.00;;;;2088251;28;20266;-66
2023/09/07 00:15:29;;;;;;;7.20;5.97;;;;;24.40;100919.00;;;;2071639;28;20218;-66
2023/09/07 00:16:35;;;;;;;6.88;6.18;;;;;24.40;100913.00;;;;2096172;28;20293;-66
2023/09/07 00:17:36;;;;;;;6.30;5.70;;;;;24.40;100915.00;;;;2096567;28;20212;-66
2023/09/07 00:18:36;;;;;;;7.20;6.50;;;;;24.40;100913.00;;;;2095751;28;20220;-66
2023/09/07 00:19:36;;;;;;;7.83;5.53;;;;;24.40;100902.00;;;;2096885;28;20303;-66
2023/09/07 00:20:37;;;;;;;7.67;5.90;;;;;24.40;100856.00;;;;2086209;28;20208;-66
2023/09/07 00:21:37;;;;;;;7.33;5.93;;;;;24.40;100919.00;;;;2096861;28;20246;-66
2023/09/07 00:22:37;;;;;;;7.87;6.30;;;;;24.40;100910.00;;;;2083201;28;20213;-66
2023/09/07 00:23:39;;;;;;;6.23;5.57;;;;;24.40;100912.00;;;;2081606;28;20251;-66
2023/09/07 00:24:39;;;;;;;8.17;5.57;;;;;24.40;100919.00;;;;2091583;28;20219;-66
2023/09/07 00:25:40;;;;;;;6.53;5.70;;;;;24.40;100913.00;;;;2082468;28;20600;-66
2023/09/07 00:26:40;;;;;;;7.03;6.27;;;;;24.40;100920.00;;;;2097068;28;20564;-66
2023/09/07 00:27:40;;;;;;;6.13;5.53;;;;;24.40;100916.00;;;;2092529;28;20692;-66
2023/09/07 00:28:41;;;;;;;6.57;5.97;;;;;24.40;100915.00;;;;2093513;28;20234;-66
2023/09/07 00:29:41;;;;;;;6.27;5.40;;;;;24.40;100911.00;;;;2082756;28;20575;-66
2023/09/07 00:30:42;;;;;;;6.10;5.43;;;;;24.40;100907.00;;;;2076031;28;20731;-66
2023/09/07 00:31:42;;;;;;;5.90;5.40;;;;;24.20;100858.00;;;;2091626;28;20219;-66
2023/09/07 00:32:42;;;;;;;6.40;5.43;;;;;24.40;100914.00;;;;2095642;28;20212;-66
2023/09/07 00:33:43;;;;;;;6.47;5.83;;;;;24.40;100919.00;;;;2096964;28;20219;-66
2023/09/07 00:34:43;;;;;;;6.20;5.30;;;;;24.40;100912.00;;;;2095880;28;20212;-66
2023/09/07 00:35:43;;;;;;;5.83;5.33;;;;;24.40;100905.00;;;;2078041;28;20221;-66
2023/09/07 00:36:44;;;;;;;6.37;5.77;;;;;24.40;100921.00;;;;2086043;28;20216;-66
2023/09/07 00:37:44;;;;;;;6.70;5.70;;;;;24.40;100917.00;;;;2091489;28;20231;-66
2023/09/07 00:38:44;;;;;;;6.00;5.10;;;;;24.30;100916.00;;;;2088895;28;20702;-66
2023/09/07 00:39:45;;;;;;;6.33;5.23;;;;;24.40;100921.00;;;;2087829;28;20694;-66
2023/09/07 00:40:45;;;;;;;6.70;5.60;;;;;24.30;100914.00;;;;2081147;28;20728;-66
2023/09/07 00:41:45;;;;;;;5.97;5.43;;;;;24.40;100920.00;;;;2084361;28;20209;-66
2023/09/07 00:42:46;;;;;;;7.27;5.83;;;;;24.30;100916.00;;;;2079833;28;20206;-66
2023/09/07 00:43:46;;;;;;;5.80;5.23;;;;;24.30;100917.00;;;;2092603;28;20265;-66
2023/09/07 00:44:48;;;;;;;6.23;5.33;;;;;24.40;100874.00;;;;2091654;28;20237;-66
2023/09/07 00:45:48;;;;;;;6.47;5.32;;;;;24.30;100912.00;;;;2085105;28;20627;-66
2023/09/07 00:46:48;;;;;;;6.70;5.30;;;;;24.30;100917.00;;;;2081634;28;20316;-66
2023/09/07 00:47:48;;;;;;;5.77;5.20;;;;;24.40;100912.00;;;;2087648;28;20225;-66
2023/09/07 00:48:49;;;;;;;6.57;5.07;;;;;24.40;100903.00;;;;2095259;28;20219;-66
2023/09/07 00:49:49;;;;;;;6.17;5.47;;;;;24.30;100905.00;;;;2090397;28;20228;-66
2023/09/07 00:50:50;;;;;;;6.60;5.80;;;;;24.40;100918.00;;;;2081474;28;20232;-66
2023/09/07 00:51:51;;;;;;;7.60;5.33;;;;;24.30;100911.00;;;;2086768;28;20208;-66
2023/09/07 00:52:51;;;;;;;6.50;5.20;;;;;24.30;100917.00;;;;2096402;28;20599;-66
2023/09/07 00:53:52;;;;;;;6.67;5.50;;;;;24.40;100921.00;;;;2086164;28;20456;-66
2023/09/07 00:54:52;;;;;;;5.63;5.13;;;;;24.30;100908.00;;;;2069604;28;20217;-66
2023/09/07 00:55:54;;;;;;;6.03;5.33;;;;;24.40;100906.00;;;;2076701;28;20225;-66
2023/09/07 00:56:55;;;;;;;6.57;5.78;;;;;24.30;100913.00;;;;2080983;28;20272;-66
2023/09/07 00:57:55;;;;;;;6.40;5.30;;;;;24.30;100908.00;;;;2081464;28;20251;-66
2023/09/07 00:58:55;;;;;;;4.93;4.53;;;;;24.30;100910.00;;;;2091896;28;20584;-66
2023/09/07 00:59:56;;;;;;;7.03;4.93;;;;;24.30;100851.00;;;;2095801;28;20630;-66
2023/09/07 01:00:56;;;;;;;5.30;4.80;;;;;24.30;100866.00;;;;2076657;28;20230;-66
2023/09/07 01:01:56;;;;;;;5.90;4.90;;;;;24.30;100908.00;;;;2086593;28;20213;-66
2023/09/07 01:02:57;;;;;;;5.47;4.73;;;;;24.30;100902.00;;;;2082649;28;20263;-66
2023/09/07 01:03:57;;;;;;;5.53;5.00;;;;;24.30;100903.00;;;;2088228;28;20709;-66
2023/09/07 01:04:57;;;;;;;5.30;4.80;;;;;24.30;100909.00;;;;2094678;28;20266;-66
2023/09/07 01:06:12;;;;;;;5.13;4.63;;;;;24.40;100907.00;;;;2079711;28;20244;-66
2023/09/07 01:07:17;;;;;;;4.90;4.50;;;;;24.30;100877.00;;;;2082598;28;20212;-66
2023/09/07 01:08:24;;;;;;;5.20;4.70;;;;;24.30;100905.00;;;;2073291;28;20614;-66
2023/09/07 01:09:26;;;;;;;4.70;4.30;;;;;24.30;100889.00;;;;2068595;28;20930;-66
2023/09/07 01:10:26;;;;;;;5.65;5.15;;;;;24.30;100903.00;;;;2061704;28;20476;-66
2023/09/07 01:11:27;;;;;;;5.97;5.23;;;;;24.30;100896.00;;;;2081798;28;20210;-66
2023/09/07 01:12:27;;;;;;;5.03;4.53;;;;;24.30;100895.00;;;;2074090;28;20213;-66
2023/09/07 01:13:28;;;;;;;5.13;4.63;;;;;24.30;100894.00;;;;2073970;28;20206;-66
2023/09/07 01:14:28;;;;;;;4.57;4.07;;;;;24.30;100898.00;;;;2088099;28;20220;-66
2023/09/07 01:15:28;;;;;;;5.53;5.00;;;;;24.30;100896.00;;;;2078109;28;20205;-66
2023/09/07 01:16:28;;;;;;;5.90;4.77;;;;;24.30;100900.00;;;;2094034;28;20325;-66
2023/09/07 01:17:29;;;;;;;6.07;4.30;;;;;24.30;100890.00;;;;2089573;28;20209;-66
2023/09/07 01:18:29;;;;;;;5.37;4.87;;;;;24.30;100896.00;;;;2094929;28;20215;-66
2023/09/07 01:19:30;;;;;;;5.53;4.80;;;;;24.40;100893.00;;;;2074794;28;20213;-66
2023/09/07 01:20:30;;;;;;;4.90;4.40;;;;;24.30;100794.00;;;;2065477;28;20666;-66
2023/09/07 01:21:37;;;;;;;5.20;4.70;;;;;24.30;100889.00;;;;2078431;28;20828;-66
2023/09/07 01:22:38;;;;;;;5.22;4.57;;;;;24.30;100882.00;;;;2072864;28;20229;-66
2023/09/07 01:23:40;;;;;;;5.20;4.70;;;;;24.30;100899.00;;;;2079050;28;20213;-66
2023/09/07 01:24:40;;;;;;;5.13;4.30;;;;;24.30;100896.00;;;;2084826;28;20732;-66
2023/09/07 01:25:41;;;;;;;4.80;4.40;;;;;24.30;100835.00;;;;2072639;28;20244;-66
2023/09/07 01:26:42;;;;;;;5.40;4.57;;;;;24.30;100897.00;;;;2078548;28;20260;-66
2023/09/07 01:27:42;;;;;;;5.30;4.80;;;;;24.30;100897.00;;;;2087196;28;20212;-66
2023/09/07 01:28:43;;;;;;;5.47;4.83;;;;;24.30;100890.00;;;;2091931;28;20820;-66
2023/09/07 01:29:43;;;;;;;5.00;4.40;;;;;24.30;100886.00;;;;2087473;28;20225;-66
2023/09/07 01:30:43;;;;;;;5.30;4.80;;;;;24.30;100883.00;;;;2074209;28;20718;-66
2023/09/07 01:31:44;;;;;;;4.83;4.37;;;;;24.30;100892.00;;;;2070462;28;20210;-66
2023/09/07 01:32:44;;;;;;;5.03;4.53;;;;;24.30;100894.00;;;;2079063;28;20738;-66
2023/09/07 01:33:45;;;;;;;4.77;4.30;;;;;24.30;100889.00;;;;2086760;28;20224;-66
2023/09/07 01:34:45;;;;;;;5.03;4.53;;;;;24.30;100889.00;;;;2083222;28;20221;-66
2023/09/07 01:35:45;;;;;;;5.10;4.60;;;;;24.30;100895.00;;;;2071563;28;20603;-66
2023/09/07 01:36:46;;;;;;;5.03;4.53;;;;;24.30;100890.00;;;;2083553;28;20748;-66
2023/09/07 01:37:46;;;;;;;4.97;4.50;;;;;24.30;100892.00;;;;2085821;28;20685;-66
2023/09/07 01:38:46;;;;;;;5.27;4.33;;;;;24.30;100895.00;;;;2087338;28;20304;-66
2023/09/07 01:39:48;;;;;;;5.20;4.70;;;;;24.30;100891.00;;;;2088254;28;20204;-66
2023/09/07 01:40:48;;;;;;;4.95;4.30;;;;;24.30;100885.00;;;;2072792;28;20282;-66
2023/09/07 01:41:49;;;;;;;4.40;4.00;;;;;24.30;100882.00;;;;2086284;28;20274;-66
2023/09/07 01:42:49;;;;;;;5.30;4.80;;;;;24.30;100888.00;;;;2083341;28;20209;-66
2023/09/07 01:43:49;;;;;;;5.60;5.03;;;;;24.30;100845.00;;;;2086674;28;20302;-66
2023/09/07 01:44:50;;;;;;;5.17;4.67;;;;;24.30;100888.00;;;;2087294;28;20209;-66
2023/09/07 01:45:50;;;;;;;4.67;4.27;;;;;24.30;100884.00;;;;2077268;28;20213;-66
2023/09/07 01:46:50;;;;;;;5.50;4.30;;;;;24.30;100882.00;;;;2087623;28;20268;-66
2023/09/07 01:47:51;;;;;;;4.77;4.37;;;;;24.30;100888.00;;;;2083548;28;20214;-66
2023/09/07 01:48:52;;;;;;;5.55;4.47;;;;;24.30;100882.00;;;;2079939;28;20205;-66
2023/09/07 01:49:52;;;;;;;4.53;3.90;;;;;24.30;100888.00;;;;2085257;28;20217;-66
2023/09/07 01:50:53;;;;;;;4.70;4.10;;;;;24.30;100881.00;;;;2077177;28;20232;-66
2023/09/07 01:51:54;;;;;;;4.68;4.25;;;;;24.30;100884.00;;;;2081922;28;20214;-66
2023/09/07 01:52:54;;;;;;;4.57;4.10;;;;;24.30;100886.00;;;;2083643;28;20220;-66
2023/09/07 01:53:54;;;;;;;4.47;4.07;;;;;24.30;100876.00;;;;2087951;28;20219;-66
2023/09/07 01:54:55;;;;;;;3.90;3.60;;;;;24.30;100878.00;;;;2086320;28;20213;-66
2023/09/07 01:55:56;;;;;;;5.63;4.67;;;;;24.30;100881.00;;;;2077453;28;20231;-66
2023/09/07 01:56:56;;;;;;;4.50;4.10;;;;;24.30;100882.00;;;;2088080;28;20447;-66
2023/09/07 01:57:57;;;;;;;7.70;4.53;;;;;24.30;100882.00;;;;2086800;28;20247;-66
2023/09/07 01:58:57;;;;;;;4.70;3.77;;;;;24.30;100872.00;;;;2087950;28;20212;-66
2023/09/07 01:59:58;;;;;;;4.90;4.50;;;;;24.30;100882.00;;;;2086662;28;20223;-66
2023/09/07 02:01:01;;;;;;;4.70;4.30;;;;;24.30;100887.00;;;;2078776;28;20229;-66
2023/09/07 02:02:01;;;;;;;5.00;4.50;;;;;24.30;100876.00;;;;2084026;28;20213;-66
2023/09/07 02:03:04;;;;;;;4.10;3.70;;;;;24.30;100887.00;;;;2086766;28;20274;-66
2023/09/07 02:04:05;;;;;;;4.65;4.25;;;;;24.10;100875.00;;;;2081067;28;20295;-66
2023/09/07 02:05:05;;;;;;;4.60;4.20;;;;;24.30;100882.00;;;;2087602;28;20212;-66
2023/09/07 02:06:06;;;;;;;5.10;4.00;;;;;24.30;100880.00;;;;2075098;28;20232;-66
2023/09/07 02:07:06;;;;;;;4.30;3.90;;;;;24.30;100879.00;;;;2086184;28;20223;-66
2023/09/07 02:08:06;;;;;;;5.70;4.20;;;;;24.30;100880.00;;;;2089179;28;20209;-66
2023/09/07 02:09:07;;;;;;;4.73;4.20;;;;;24.30;100886.00;;;;2087601;28;20204;-66
2023/09/07 02:10:08;;;;;;;5.30;4.13;;;;;24.30;100871.00;;;;2089384;28;20228;-66
2023/09/07 02:11:08;;;;;;;3.93;3.63;;;;;24.30;100876.00;;;;2075300;28;20576;-66
2023/09/07 02:12:10;;;;;;;4.20;3.80;;;;;24.30;100878.00;;;;2088324;28;20209;-66
2023/09/07 02:13:11;;;;;;;4.55;3.80;;;;;24.30;100877.00;;;;2089348;28;20219;-66
2023/09/07 02:14:11;;;;;;;5.40;4.50;;;;;24.30;100876.00;;;;2087973;28;20212;-66
2023/09/07 02:15:12;;;;;;;5.73;4.20;;;;;24.30;100874.00;;;;2088709;28;20456;-66
2023/09/07 02:16:12;;;;;;;4.67;4.27;;;;;24.30;100880.00;;;;2077460;28;20220;-66
2023/09/07 02:17:17;;;;;;;5.10;3.77;;;;;24.20;100864.00;;;;2088323;28;20308;-66
2023/09/07 02:18:17;;;;;;;4.32;3.92;;;;;24.30;100882.00;;;;2081536;28;20236;-66
2023/09/07 02:19:18;;;;;;;4.87;4.40;;;;;24.20;100873.00;;;;2096322;28;20677;-66
2023/09/07 02:20:20;;;;;;;5.00;3.90;;;;;24.20;100861.00;;;;2098516;28;20212;-66
2023/09/07 02:21:20;;;;;;;4.80;4.30;;;;;24.20;100847.00;;;;2089613;28;20247;-66
2023/09/07 02:22:20;;;;;;;4.33;3.93;;;;;24.20;100872.00;;;;2090645;28;20216;-66
2023/09/07 02:23:21;;;;;;;3.80;3.43;;;;;24.20;100876.00;;;;2089681;28;20607;-66
2023/09/07 02:24:21;;;;;;;4.73;4.17;;;;;24.20;100862.00;;;;2093929;28;20235;-66
2023/09/07 02:25:21;;;;;;;5.30;4.17;;;;;24.20;100874.00;;;;2079431;28;20295;-66
2023/09/07 02:26:22;;;;;;;4.50;4.10;;;;;24.20;100859.00;;;;2096189;28;20204;-66
2023/09/07 02:27:22;;;;;;;6.00;4.03;;;;;24.20;100866.00;;;;2087645;28;20280;-66
2023/09/07 02:28:23;;;;;;;4.57;4.17;;;;;24.20;100867.00;;;;2086132;28;20224;-66
2023/09/07 02:29:24;;;;;;;3.80;3.40;;;;;24.20;100870.00;;;;2096311;28;20234;-66
2023/09/07 02:30:24;;;;;;;3.97;3.60;;;;;24.20;100865.00;;;;2084594;28;20647;-66
2023/09/07 02:31:24;;;;;;;4.60;4.20;;;;;24.30;100871.00;;;;2090086;28;20286;-66
2023/09/07 02:32:25;;;;;;;3.97;3.67;;;;;24.20;100862.00;;;;2094730;28;20201;-66
2023/09/07 02:33:25;;;;;;;4.17;3.77;;;;;24.20;100865.00;;;;2091881;28;20212;-66
2023/09/07 02:34:25;;;;;;;4.70;4.00;;;;;24.20;100862.00;;;;2096427;28;20216;-66
2023/09/07 02:35:26;;;;;;;4.43;4.03;;;;;24.20;100867.00;;;;2080739;28;20294;-66
2023/09/07 02:36:26;;;;;;;5.33;3.97;;;;;24.20;100862.00;;;;2089520;28;20220;-66
2023/09/07 02:37:26;;;;;;;4.60;3.90;;;;;24.20;100869.00;;;;2092570;28;20270;-66
2023/09/07 02:38:27;;;;;;;4.53;4.07;;;;;24.20;100863.00;;;;2090559;28;20292;-66
2023/09/07 02:39:27;;;;;;;4.30;3.83;;;;;24.20;100866.00;;;;2091345;28;20215;-66
2023/09/07 02:40:27;;;;;;;4.33;3.93;;;;;24.20;100869.00;;;;2082660;28;20212;-66
2023/09/07 02:41:28;;;;;;;4.40;4.00;;;;;24.20;100875.00;;;;2091344;28;20681;-66
2023/09/07 02:42:28;;;;;;;4.80;3.80;;;;;24.20;100872.00;;;;2091751;28;20603;-66
2023/09/07 02:43:28;;;;;;;4.20;3.80;;;;;24.20;100870.00;;;;2089191;28;20562;-66
2023/09/07 02:44:29;;;;;;;4.83;4.33;;;;;24.20;100872.00;;;;2088620;28;21925;-66
2023/09/07 02:45:29;;;;;;;4.33;3.93;;;;;24.20;100871.00;;;;2078989;28;20663;-66
2023/09/07 02:46:29;;;;;;;5.70;4.00;;;;;24.20;100872.00;;;;2089679;28;20565;-66
2023/09/07 02:47:30;;;;;;;6.53;4.00;;;;;24.20;100872.00;;;;2090507;28;20579;-66
2023/09/07 02:48:30;;;;;;;4.33;3.93;;;;;24.20;100872.00;;;;2091919;28;20215;-66
2023/09/07 02:49:30;;;;;;;4.00;3.60;;;;;24.20;100868.00;;;;2094322;28;20212;-66
2023/09/07 02:50:32;;;;;;;3.97;3.63;;;;;24.20;100865.00;;;;2072921;28;20718;-66
2023/09/07 02:51:33;;;;;;;4.25;3.85;;;;;24.20;100870.00;;;;2085675;28;20237;-66
2023/09/07 02:52:33;;;;;;;4.17;3.80;;;;;24.20;100870.00;;;;2089688;28;20209;-66
2023/09/07 02:53:33;;;;;;;4.00;3.70;;;;;24.20;100865.00;;;;2087434;28;20216;-66
2023/09/07 02:54:34;;;;;;;4.63;3.77;;;;;24.20;100867.00;;;;2088318;28;20306;-66
2023/09/07 02:55:34;;;;;;;4.03;3.70;;;;;24.20;100869.00;;;;2081155;28;20215;-66
2023/09/07 02:56:35;;;;;;;3.93;3.50;;;;;24.20;100866.00;;;;2086757;28;20216;-66
2023/09/07 02:57:35;;;;;;;4.03;3.63;;;;;24.20;100872.00;;;;2088593;28;20219;-66
2023/09/07 02:58:37;;;;;;;6.03;4.10;;;;;24.20;100864.00;;;;2088469;28;20205;-66
2023/09/07 02:59:37;;;;;;;3.63;3.30;;;;;24.20;100870.00;;;;2089092;28;20208;-66
2023/09/07 03:00:44;;;;;;;4.20;3.80;;;;;24.20;100864.00;;;;2079451;28;20205;-66
2023/09/07 03:01:45;;;;;;;4.10;3.70;;;;;24.20;100866.00;;;;2091329;28;20552;-66
2023/09/07 03:02:45;;;;;;;3.70;3.40;;;;;24.20;100872.00;;;;2089899;28;20287;-66
2023/09/07 03:03:46;;;;;;;3.97;3.57;;;;;24.20;100874.00;;;;2091957;28;20212;-66
2023/09/07 03:04:46;;;;;;;5.13;3.50;;;;;24.20;100870.00;;;;2089652;28;20213;-66
2023/09/07 03:05:46;;;;;;;4.17;3.87;;;;;24.20;100871.00;;;;2077965;28;20221;-66
2023/09/07 03:06:47;;;;;;;4.53;4.10;;;;;24.20;100873.00;;;;2097373;28;20223;-66
2023/09/07 03:07:47;;;;;;;4.00;3.40;;;;;24.20;100866.00;;;;2089234;28;20243;-66
2023/09/07 03:08:47;;;;;;;5.07;3.60;;;;;24.20;100872.00;;;;2092406;28;20217;-66
2023/09/07 03:09:48;;;;;;;4.63;4.23;;;;;24.20;100870.00;;;;2097447;28;20216;-66
2023/09/07 03:10:48;;;;;;;4.30;3.83;;;;;24.20;100867.00;;;;2086469;28;20285;-66
2023/09/07 03:11:49;;;;;;;3.77;3.47;;;;;24.20;100869.00;;;;2096752;28;20785;-66
2023/09/07 03:12:49;;;;;;;4.40;4.00;;;;;24.20;100864.00;;;;2091756;28;20554;-66
2023/09/07 03:13:49;;;;;;;3.73;3.43;;;;;24.20;100861.00;;;;2085525;28;20705;-66
2023/09/07 03:14:52;;;;;;;3.70;3.40;;;;;24.20;100863.00;;;;2093448;28;20232;-66
2023/09/07 03:15:53;;;;;;;4.45;3.60;;;;;24.20;100857.00;;;;2078519;28;20592;-66
2023/09/07 03:16:54;;;;;;;4.37;3.93;;;;;24.20;100867.00;;;;2083835;28;20217;-66
2023/09/07 03:17:54;;;;;;;4.90;3.60;;;;;24.20;100860.00;;;;2079007;28;20468;-66
2023/09/07 03:18:55;;;;;;;5.17;4.10;;;;;24.20;100858.00;;;;2089278;28;20574;-66
2023/09/07 03:19:55;;;;;;;3.90;3.50;;;;;24.20;100862.00;;;;2088064;28;20579;-66
2023/09/07 03:20:55;;;;;;;4.37;3.97;;;;;24.20;100864.00;;;;2079055;28;20677;-66
2023/09/07 03:21:56;;;;;;;4.97;3.60;;;;;24.20;100808.00;;;;2088396;28;20209;-66
2023/09/07 03:22:56;;;;;;;3.80;3.50;;;;;24.20;100851.00;;;;2079473;28;20202;-66
2023/09/07 03:23:57;;;;;;;4.00;3.63;;;;;24.20;100863.00;;;;2088392;28;20258;-66
2023/09/07 03:24:57;;;;;;;3.70;3.40;;;;;24.20;100864.00;;;;2096635;28;20239;-66
2023/09/07 03:25:58;;;;;;;4.40;4.00;;;;;24.20;100859.00;;;;2087197;28;20257;-66
2023/09/07 03:26:59;;;;;;;4.93;4.43;;;;;24.20;100856.00;;;;2095236;28;20204;-66
2023/09/07 03:27:59;;;;;;;4.40;4.00;;;;;24.20;100861.00;;;;2088833;28;20614;-66
2023/09/07 03:28:59;;;;;;;4.13;3.73;;;;;24.20;100866.00;;;;2090461;28;20583;-66
2023/09/07 03:30:00;;;;;;;4.67;4.27;;;;;24.20;100865.00;;;;2092313;28;20653;-66
2023/09/07 03:31:00;;;;;;;3.63;3.33;;;;;24.20;100859.00;;;;2083115;28;20270;-66
2023/09/07 03:32:01;;;;;;;3.43;3.13;;;;;24.20;100860.00;;;;2091040;28;20217;-66
2023/09/07 03:33:03;;;;;;;4.13;3.73;;;;;24.20;100852.00;;;;2089099;28;20842;-66
2023/09/07 03:34:03;;;;;;;4.50;3.65;;;;;24.20;100857.00;;;;2089530;28;20213;-66
2023/09/07 03:35:09;;;;;;;3.70;3.40;;;;;24.20;100849.00;;;;2085713;28;20284;-66
2023/09/07 03:36:10;;;;;;;3.90;3.58;;;;;24.20;100858.00;;;;2060113;28;20223;-65
2023/09/07 03:37:11;;;;;;;4.30;3.90;;;;;24.20;100851.00;;;;2081401;28;20354;-65
2023/09/07 03:38:11;;;;;;;4.00;3.63;;;;;24.20;100854.00;;;;2090013;28;20592;-65
2023/09/07 03:39:12;;;;;;;4.43;4.03;;;;;24.10;100855.00;;;;2085620;28;20225;-65
2023/09/07 03:40:12;;;;;;;5.90;4.30;;;;;24.20;100849.00;;;;2093150;28;20675;-65
2023/09/07 03:41:12;;;;;;;4.27;3.90;;;;;24.20;100853.00;;;;2079826;28;20624;-65
2023/09/07 03:42:13;;;;;;;3.90;3.40;;;;;24.20;100859.00;;;;2096214;28;20259;-65
2023/09/07 03:43:13;;;;;;;3.80;3.50;;;;;24.20;100857.00;;;;2091541;28;20228;-65
2023/09/07 03:44:13;;;;;;;4.20;3.80;;;;;24.20;100859.00;;;;2096350;28;20243;-65
2023/09/07 03:45:14;;;;;;;4.40;4.00;;;;;24.20;100858.00;;;;2090558;28;20248;-65
2023/09/07 03:46:14;;;;;;;4.30;3.40;;;;;24.20;100863.00;;;;2077101;28;20270;-65
2023/09/07 03:47:18;;;;;;;4.07;3.67;;;;;24.10;100863.00;;;;2088394;28;20225;-65
2023/09/07 03:48:19;;;;;;;4.40;4.00;;;;;24.10;100864.00;;;;2092218;28;20228;-65
2023/09/07 03:49:19;;;;;;;3.80;3.40;;;;;24.20;100860.00;;;;2088890;28;20209;-65
2023/09/07 03:50:20;;;;;;;3.60;3.30;;;;;24.10;100862.00;;;;2092822;28;20204;-65
2023/09/07 03:51:20;;;;;;;4.10;3.70;;;;;24.10;100867.00;;;;2083227;28;20236;-65
2023/09/07 03:52:24;;;;;;;4.00;3.60;;;;;24.10;100864.00;;;;2088424;28;20208;-65
2023/09/07 03:53:25;;;;;;;4.15;3.65;;;;;24.10;100863.00;;;;2095946;28;20227;-65
2023/09/07 03:54:25;;;;;;;4.67;4.17;;;;;24.10;100825.00;;;;2089076;28;20213;-65
2023/09/07 03:55:25;;;;;;;5.07;3.70;;;;;24.10;100864.00;;;;2080404;28;20750;-65
2023/09/07 03:56:26;;;;;;;3.73;3.43;;;;;24.10;100834.00;;;;2096513;28;20220;-65
2023/09/07 03:57:27;;;;;;;4.13;3.73;;;;;24.10;100867.00;;;;2096897;28;20216;-65
2023/09/07 03:58:27;;;;;;;3.93;3.63;;;;;24.10;100869.00;;;;2096456;28;20669;-65
2023/09/07 03:59:27;;;;;;;3.97;3.57;;;;;24.10;100773.00;;;;2096205;28;20227;-65
2023/09/07 04:00:28;;;;;;;5.13;3.87;;;;;24.10;100872.00;;;;2073585;28;20216;-65
2023/09/07 04:01:28;;;;;;;4.20;3.80;;;;;24.10;100870.00;;;;2085029;28;20221;-65
2023/09/07 04:02:28;;;;;;;3.40;3.10;;;;;24.10;100872.00;;;;2095656;28;20251;-65
2023/09/07 04:03:29;;;;;;;4.20;3.80;;;;;24.10;100865.00;;;;2096279;28;20224;-65
2023/09/07 04:04:29;;;;;;;3.53;3.10;;;;;24.10;100870.00;;;;2092333;28;20224;-65
2023/09/07 04:05:29;;;;;;;3.70;3.40;;;;;24.10;100869.00;;;;2086154;28;20224;-65
2023/09/07 04:06:30;;;;;;;4.50;4.10;;;;;24.10;100865.00;;;;2096230;28;20342;-65
2023/09/07 04:07:31;;;;;;;4.73;3.77;;;;;24.10;100870.00;;;;2092414;28;20212;-65
2023/09/07 04:08:31;;;;;;;4.43;3.93;;;;;24.10;100866.00;;;;2095941;28;20212;-65
2023/09/07 04:09:31;;;;;;;4.30;3.83;;;;;24.10;100874.00;;;;2091351;28;20467;-66
2023/09/07 04:10:32;;;;;;;4.00;3.60;;;;;24.10;100870.00;;;;2078703;28;20212;-66
2023/09/07 04:11:32;;;;;;;3.77;3.47;;;;;24.10;100873.00;;;;2096749;28;20314;-66
2023/09/07 04:12:33;;;;;;;3.90;3.60;;;;;24.10;100864.00;;;;2095089;28;20628;-66
2023/09/07 04:13:33;;;;;;;4.07;3.77;;;;;24.10;100881.00;;;;2088601;28;20225;-66
2023/09/07 04:14:33;;;;;;;4.40;4.00;;;;;24.10;100878.00;;;;2085343;28;20599;-66
2023/09/07 04:15:34;;;;;;;4.10;3.70;;;;;24.10;100874.00;;;;2076717;28;20213;-66
2023/09/07 04:16:34;;;;;;;3.30;3.00;;;;;24.10;100872.00;;;;2081889;28;20232;-66
2023/09/07 04:17:40;;;;;;;3.57;3.27;;;;;24.10;100869.00;;;;2087646;28;20258;-66
2023/09/07 04:18:40;;;;;;;3.95;3.55;;;;;24.10;100834.00;;;;2096266;28;20669;-66
2023/09/07 04:19:40;;;;;;;4.07;3.77;;;;;24.10;100883.00;;;;2095694;28;20208;-66
2023/09/07 04:20:41;;;;;;;4.83;3.53;;;;;24.10;100872.00;;;;2084737;28;20216;-66
2023/09/07 04:21:41;;;;;;;5.87;4.10;;;;;24.10;100880.00;;;;2090463;28;20209;-66
2023/09/07 04:22:41;;;;;;;4.27;3.87;;;;;24.10;100876.00;;;;2092962;28;20219;-66
2023/09/07 04:23:42;;;;;;;5.23;3.60;;;;;24.10;100870.00;;;;2090972;28;20228;-66
2023/09/07 04:24:42;;;;;;;4.27;3.87;;;;;24.10;100869.00;;;;2094664;28;20690;-66
2023/09/07 04:25:43;;;;;;;3.90;3.50;;;;;24.10;100871.00;;;;2082984;28;20223;-66
2023/09/07 04:26:43;;;;;;;3.70;3.40;;;;;24.10;100873.00;;;;2093532;28;20216;-66
2023/09/07 04:27:43;;;;;;;4.23;3.83;;;;;24.10;100878.00;;;;2084985;28;20333;-66
2023/09/07 04:28:44;;;;;;;3.50;3.20;;;;;24.10;100871.00;;;;2084968;28;20213;-66
2023/09/07 04:29:44;;;;;;;4.20;3.80;;;;;24.10;100882.00;;;;2096800;28;20251;-66
2023/09/07 04:30:44;;;;;;;3.93;3.60;;;;;24.10;100866.00;;;;2083847;28;20212;-66
2023/09/07 04:31:45;;;;;;;3.77;3.37;;;;;24.10;100882.00;;;;2091430;28;20267;-66
2023/09/07 04:32:45;;;;;;;4.17;3.83;;;;;24.10;100879.00;;;;2096584;28;20218;-66
2023/09/07 04:33:45;;;;;;;3.80;3.33;;;;;24.10;100876.00;;;;2096045;28;20212;-66
2023/09/07 04:34:46;;;;;;;4.00;3.70;;;;;24.10;100874.00;;;;2097040;28;20255;-66
2023/09/07 04:35:46;;;;;;;4.33;3.63;;;;;24.10;100870.00;;;;2083086;28;20216;-66
2023/09/07 04:36:46;;;;;;;3.77;3.47;;;;;24.10;100873.00;;;;2091419;28;20216;-66
2023/09/07 04:37:47;;;;;;;4.70;3.80;;;;;24.10;100878.00;;;;2093921;28;20536;-66
2023/09/07 04:38:47;;;;;;;3.87;3.20;;;;;24.10;100885.00;;;;2096737;28;20430;-66
2023/09/07 04:39:52;;;;;;;4.10;3.60;;;;;24.10;100872.00;;;;2094475;28;20797;-66
2023/09/07 04:40:52;;;;;;;4.47;3.83;;;;;23.40;100799.00;;;;2078012;28;20575;-66
2023/09/07 04:41:53;;;;;;;4.57;3.70;;;;;24.10;100874.00;;;;2071583;28;20237;-66
2023/09/07 04:42:53;;;;;;;4.70;4.30;;;;;24.10;100881.00;;;;2063537;28;20218;-66
2023/09/07 04:43:53;;;;;;;4.67;3.50;;;;;24.10;100874.00;;;;2086334;28;20219;-66
2023/09/07 04:44:54;;;;;;;3.53;3.23;;;;;24.10;100871.00;;;;2087535;28;20213;-66
2023/09/07 04:45:54;;;;;;;4.53;3.73;;;;;24.10;100878.00;;;;2078605;28;20221;-66
2023/09/07 04:46:55;;;;;;;3.87;3.50;;;;;24.10;100877.00;;;;2088010;28;20205;-66
2023/09/07 04:47:55;;;;;;;5.38;3.30;;;;;24.10;100874.00;;;;2095877;28;20581;-66
2023/09/07 04:48:56;;;;;;;4.50;3.80;;;;;24.10;100873.00;;;;2088788;28;20205;-66
2023/09/07 04:49:56;;;;;;;4.13;3.20;;;;;24.10;100873.00;;;;2090129;28;20234;-66
2023/09/07 04:51:00;;;;;;;4.13;3.60;;;;;24.10;100867.00;;;;2079340;28;20286;-66
2023/09/07 04:52:00;;;;;;;4.43;4.03;;;;;24.10;100870.00;;;;2095866;28;20246;-66
2023/09/07 04:53:00;;;;;;;3.53;3.23;;;;;24.10;100878.00;;;;2096666;28;20204;-66
2023/09/07 04:54:01;;;;;;;3.47;3.17;;;;;24.00;100810.00;;;;2094567;28;20208;-66
2023/09/07 04:55:01;;;;;;;4.40;4.00;;;;;24.00;100878.00;;;;2088500;28;20204;-66
2023/09/07 04:56:02;;;;;;;4.10;3.70;;;;;24.10;100889.00;;;;2069308;28;20682;-66
2023/09/07 04:57:03;;;;;;;3.70;3.40;;;;;24.10;100853.00;;;;2074757;28;20630;-66
2023/09/07 04:58:03;;;;;;;3.87;3.50;;;;;24.10;100878.00;;;;2078519;28;20459;-66
2023/09/07 04:59:03;;;;;;;3.70;3.40;;;;;24.00;100872.00;;;;2092888;28;20213;-66
2023/09/07 05:00:06;;;;;;;5.43;3.47;;;;;24.00;100876.00;;;;2081784;28;20702;-66